sensor_id;sensor_type;location;lat;lon;timestamp;pressure;altitude;pressure_sealevel;temperature;humidity
40490;BME280;26196;52.302;10.572;2023-03-04T00:00:38;101245.38;;;10.19;47.11
40490;BME280;26196;52.302;10.572;2023-03-04T00:04:44;101235.81;;;10.16;46.93
40490;BME280;26196;52.302;10.572;2023-03-04T00:08:45;101228.97;;;10.07;47.14
40490;BME280;26196;52.302;10.572;2023-03-04T00:12:46;101229.66;;;10.19;46.79
40490;BME280;26196;52.302;10.572;2023-03-04T00:16:47;101236.72;;;10.14;46.78
40490;BME280;26196;52.302;10.572;2023-03-04T00:20:48;101218.59;;;10.01;46.59
40490;BME280;26196;52.302;10.572;2023-03-04T00:24:51;101222.81;;;10.08;46.92
40490;BME280;26196;52.302;10.572;2023-03-04T00:28:52;101228.97;;;10.07;46.96
40490;BME280;26196;52.302;10.572;2023-03-04T00:32:52;101223.69;;;10.11;46.92
40490;BME280;26196;52.302;10.572;2023-03-04T00:36:52;101203.66;;;10.10;47.29
40490;BME280;26196;52.302;10.572;2023-03-04T00:40:53;101205.38;;;10.11;46.96
40490;BME280;26196;52.302;10.572;2023-03-04T00:45:04;101205.34;;;10.12;47.40
40490;BME280;26196;52.302;10.572;2023-03-04T00:49:05;101192.41;;;10.03;47.16
40490;BME280;26196;52.302;10.572;2023-03-04T00:53:27;101205.47;;;10.04;47.46
40490;BME280;26196;52.302;10.572;2023-03-04T00:57:28;101191.53;;;10.01;47.43
40490;BME280;26196;52.302;10.572;2023-03-04T01:01:28;101192.50;;;9.95;47.63
40490;BME280;26196;52.302;10.572;2023-03-04T01:05:28;101194.25;;;9.93;47.61
40490;BME280;26196;52.302;10.572;2023-03-04T01:09:31;101185.59;;;9.91;47.52
40490;BME280;26196;52.302;10.572;2023-03-04T01:13:31;101180.44;;;9.85;47.96
40490;BME280;26196;52.302;10.572;2023-03-04T01:17:32;101178.75;;;9.81;48.10
40490;BME280;26196;52.302;10.572;2023-03-04T01:21:32;101181.44;;;9.78;48.19
40490;BME280;26196;52.302;10.572;2023-03-04T01:25:33;101179.69;;;9.77;47.98
40490;BME280;26196;52.302;10.572;2023-03-04T01:29:33;101170.25;;;9.65;48.25
40490;BME280;26196;52.302;10.572;2023-03-04T01:33:33;101173.59;;;9.75;47.74
40490;BME280;26196;52.302;10.572;2023-03-04T01:37:34;101145.03;;;9.62;48.01
40490;BME280;26196;52.302;10.572;2023-03-04T01:41:34;101141.56;;;9.60;48.03
40490;BME280;26196;52.302;10.572;2023-03-04T01:45:43;101149.16;;;9.77;48.14
40490;BME280;26196;52.302;10.572;2023-03-04T01:49:45;101141.41;;;9.70;48.57
40490;BME280;26196;52.302;10.572;2023-03-04T01:53:49;101141.31;;;9.77;47.94
40490;BME280;26196;52.302;10.572;2023-03-04T01:57:52;101115.25;;;9.73;48.22
40490;BME280;26196;52.302;10.572;2023-03-04T02:01:55;101124.97;;;9.64;48.15
40490;BME280;26196;52.302;10.572;2023-03-04T02:05:56;101122.25;;;9.71;48.59
40490;BME280;26196;52.302;10.572;2023-03-04T02:09:56;101112.66;;;9.71;48.57
40490;BME280;26196;52.302;10.572;2023-03-04T02:13:57;101107.44;;;9.70;48.60
40490;BME280;26196;52.302;10.572;2023-03-04T02:17:59;101107.38;;;9.76;48.73
40490;BME280;26196;52.302;10.572;2023-03-04T02:22:06;101109.16;;;9.72;48.79
40490;BME280;26196;52.302;10.572;2023-03-04T02:30:10;101097.84;;;9.72;48.49
40490;BME280;26196;52.302;10.572;2023-03-04T02:34:22;101098.63;;;9.78;48.83
40490;BME280;26196;52.302;10.572;2023-03-04T02:38:23;101095.41;;;9.59;49.28
40490;BME280;26196;52.302;10.572;2023-03-04T02:42:24;101086.56;;;9.67;49.15
40490;BME280;26196;52.302;10.572;2023-03-04T02:46:24;101078.94;;;9.51;49.14
40490;BME280;26196;52.302;10.572;2023-03-04T02:50:26;101075.47;;;9.52;49.59
40490;BME280;26196;52.302;10.572;2023-03-04T02:54:28;101077.25;;;9.49;49.06
40490;BME280;26196;52.302;10.572;2023-03-04T02:58:29;101070.31;;;9.46;49.22
40490;BME280;26196;52.302;10.572;2023-03-04T03:02:30;101072.91;;;9.49;49.12
40490;BME280;26196;52.302;10.572;2023-03-04T03:06:31;101073.69;;;9.54;49.57
40490;BME280;26196;52.302;10.572;2023-03-04T03:10:31;101078.84;;;9.60;49.54
40490;BME280;26196;52.302;10.572;2023-03-04T03:14:32;101071.09;;;9.54;49.36
40490;BME280;26196;52.302;10.572;2023-03-04T03:18:32;101065.97;;;9.47;49.54
40490;BME280;26196;52.302;10.572;2023-03-04T03:22:33;101048.59;;;9.42;49.44
40490;BME280;26196;52.302;10.572;2023-03-04T03:26:58;101062.41;;;9.52;49.17
40490;BME280;26196;52.302;10.572;2023-03-04T03:30:58;101056.44;;;9.42;49.79
40490;BME280;26196;52.302;10.572;2023-03-04T03:34:59;101058.94;;;9.52;49.44
40490;BME280;26196;52.302;10.572;2023-03-04T03:39:00;101057.13;;;9.54;49.62
40490;BME280;26196;52.302;10.572;2023-03-04T03:43:00;101070.25;;;9.52;50.07
40490;BME280;26196;52.302;10.572;2023-03-04T03:47:01;101070.28;;;9.49;49.72
40490;BME280;26196;52.302;10.572;2023-03-04T03:51:02;101059.94;;;9.40;50.19
40490;BME280;26196;52.302;10.572;2023-03-04T03:55:02;101052.91;;;9.45;50.16
40490;BME280;26196;52.302;10.572;2023-03-04T03:59:03;101049.44;;;9.45;49.95
40490;BME280;26196;52.302;10.572;2023-03-04T04:03:03;101044.97;;;9.51;50.15
40490;BME280;26196;52.302;10.572;2023-03-04T04:07:04;101044.22;;;9.45;50.21
40490;BME280;26196;52.302;10.572;2023-03-04T04:11:04;101035.53;;;9.41;50.14
40490;BME280;26196;52.302;10.572;2023-03-04T04:15:05;101024.25;;;9.39;50.61
40490;BME280;26196;52.302;10.572;2023-03-04T04:19:06;101023.41;;;9.37;50.59
40490;BME280;26196;52.302;10.572;2023-03-04T04:23:06;101025.97;;;9.40;50.42
40490;BME280;26196;52.302;10.572;2023-03-04T04:27:06;101018.19;;;9.35;50.47
40490;BME280;26196;52.302;10.572;2023-03-04T04:31:07;101025.97;;;9.40;50.26
40490;BME280;26196;52.302;10.572;2023-03-04T04:35:08;101035.50;;;9.44;50.26
40490;BME280;26196;52.302;10.572;2023-03-04T04:39:09;101022.63;;;9.32;51.04
40490;BME280;26196;52.302;10.572;2023-03-04T04:43:09;101019.94;;;9.36;50.59
40490;BME280;26196;52.302;10.572;2023-03-04T04:47:09;101011.25;;;9.33;50.70
40490;BME280;26196;52.302;10.572;2023-03-04T04:51:10;101016.38;;;9.40;50.44
40490;BME280;26196;52.302;10.572;2023-03-04T04:55:14;101017.13;;;9.49;50.33
40490;BME280;26196;52.302;10.572;2023-03-04T04:59:14;101018.94;;;9.47;50.72
40490;BME280;26196;52.302;10.572;2023-03-04T05:03:14;101012.06;;;9.38;51.19
40490;BME280;26196;52.302;10.572;2023-03-04T05:07:15;101010.38;;;9.35;50.87
40490;BME280;26196;52.302;10.572;2023-03-04T05:11:16;101012.00;;;9.44;50.72
40490;BME280;26196;52.302;10.572;2023-03-04T05:15:18;101020.69;;;9.45;51.40
40490;BME280;26196;52.302;10.572;2023-03-04T05:19:19;101018.88;;;9.50;50.81
40490;BME280;26196;52.302;10.572;2023-03-04T05:23:22;101005.03;;;9.43;50.97
40490;BME280;26196;52.302;10.572;2023-03-04T05:27:23;100992.06;;;9.35;51.33
40490;BME280;26196;52.302;10.572;2023-03-04T05:31:23;100992.13;;;9.34;51.09
40490;BME280;26196;52.302;10.572;2023-03-04T05:35:24;100985.25;;;9.27;51.11
40490;BME280;26196;52.302;10.572;2023-03-04T05:39:24;100996.53;;;9.27;51.71
40490;BME280;26196;52.302;10.572;2023-03-04T05:43:26;101003.47;;;9.31;51.23
40490;BME280;26196;52.302;10.572;2023-03-04T05:47:37;100997.41;;;9.28;51.53
40490;BME280;26196;52.302;10.572;2023-03-04T05:51:37;100999.84;;;9.40;51.39
40490;BME280;26196;52.302;10.572;2023-03-04T05:55:39;100998.94;;;9.41;51.23
40490;BME280;26196;52.302;10.572;2023-03-04T05:59:40;100997.28;;;9.37;51.80
40490;BME280;26196;52.302;10.572;2023-03-04T06:03:44;101019.78;;;9.46;51.26
40490;BME280;26196;52.302;10.572;2023-03-04T06:07:47;101012.88;;;9.43;51.79
40490;BME280;26196;52.302;10.572;2023-03-04T06:11:47;100999.91;;;9.37;52.07
40490;BME280;26196;52.302;10.572;2023-03-04T06:20:10;101013.72;;;9.43;51.51
40490;BME280;26196;52.302;10.572;2023-03-04T06:24:24;101009.34;;;9.47;51.82
40490;BME280;26196;52.302;10.572;2023-03-04T06:28:25;101006.78;;;9.42;51.61
40490;BME280;26196;52.302;10.572;2023-03-04T06:32:28;101003.28;;;9.43;52.01
40490;BME280;26196;52.302;10.572;2023-03-04T06:36:28;101002.34;;;9.49;51.91
40490;BME280;26196;52.302;10.572;2023-03-04T06:40:28;101016.28;;;9.50;52.43
40490;BME280;26196;52.302;10.572;2023-03-04T06:44:29;101018.03;;;9.49;51.87
40490;BME280;26196;52.302;10.572;2023-03-04T06:48:29;100998.94;;;9.41;52.04
40490;BME280;26196;52.302;10.572;2023-03-04T06:52:30;101013.72;;;9.47;52.69
40490;BME280;26196;52.302;10.572;2023-03-04T06:56:32;100998.94;;;9.41;51.83
40490;BME280;26196;52.302;10.572;2023-03-04T07:00:32;101009.28;;;9.52;51.88
40490;BME280;26196;52.302;10.572;2023-03-04T07:04:33;101009.38;;;9.44;52.46
40490;BME280;26196;52.302;10.572;2023-03-04T07:08:33;101000.66;;;9.45;52.30
40490;BME280;26196;52.302;10.572;2023-03-04T07:12:33;101014.47;;;9.53;52.40
40490;BME280;26196;52.302;10.572;2023-03-04T07:16:34;101015.31;;;9.57;52.31
40490;BME280;26196;52.302;10.572;2023-03-04T07:24:57;101020.44;;;9.61;52.45
40490;BME280;26196;52.302;10.572;2023-03-04T07:29:05;101009.22;;;9.53;52.89
40490;BME280;26196;52.302;10.572;2023-03-04T07:33:05;100996.16;;;9.53;52.81
40490;BME280;26196;52.302;10.572;2023-03-04T07:37:05;101005.69;;;9.57;52.67
40490;BME280;26196;52.302;10.572;2023-03-04T07:41:10;101009.84;;;9.71;52.41
40490;BME280;26196;52.302;10.572;2023-03-04T07:45:10;100997.75;;;9.65;52.60
40490;BME280;26196;52.302;10.572;2023-03-04T07:49:14;101001.16;;;9.69;52.52
40490;BME280;26196;52.302;10.572;2023-03-04T07:53:15;101016.00;;;9.68;52.88
40490;BME280;26196;52.302;10.572;2023-03-04T07:57:19;101000.38;;;9.63;52.96
40490;BME280;26196;52.302;10.572;2023-03-04T08:01:22;101014.28;;;9.66;53.65
40490;BME280;26196;52.302;10.572;2023-03-04T08:05:23;101001.16;;;9.70;53.36
40490;BME280;26196;52.302;10.572;2023-03-04T08:09:23;100986.28;;;9.72;53.42
40490;BME280;26196;52.302;10.572;2023-03-04T08:13:27;100990.75;;;9.66;53.54
40490;BME280;26196;52.302;10.572;2023-03-04T08:17:27;101002.06;;;9.68;53.79
40490;BME280;26196;52.302;10.572;2023-03-04T08:21:31;100999.22;;;9.80;53.73
40490;BME280;26196;52.302;10.572;2023-03-04T08:25:31;101008.88;;;9.78;53.64
40490;BME280;26196;52.302;10.572;2023-03-04T08:29:32;100998.31;;;9.82;53.83
40490;BME280;26196;52.302;10.572;2023-03-04T08:33:32;101007.97;;;9.79;53.60
40490;BME280;26196;52.302;10.572;2023-03-04T08:37:33;100994.91;;;9.79;53.74
40490;BME280;26196;52.302;10.572;2023-03-04T08:41:34;101003.59;;;9.81;53.83
40490;BME280;26196;52.302;10.572;2023-03-04T08:45:35;100999.28;;;9.77;53.93
40490;BME280;26196;52.302;10.572;2023-03-04T08:49:35;100999.50;;;9.64;54.14
40490;BME280;26196;52.302;10.572;2023-03-04T08:53:36;100995.94;;;9.67;54.56
40490;BME280;26196;52.302;10.572;2023-03-04T08:57:39;100997.63;;;9.71;54.35
40490;BME280;26196;52.302;10.572;2023-03-04T09:01:39;100994.13;;;9.74;54.65
40490;BME280;26196;52.302;10.572;2023-03-04T09:05:39;100996.84;;;9.66;55.16
40490;BME280;26196;52.302;10.572;2023-03-04T09:09:40;101004.75;;;9.61;55.84
40490;BME280;26196;52.302;10.572;2023-03-04T09:13:40;101010.03;;;9.60;56.05
40490;BME280;26196;52.302;10.572;2023-03-04T09:17:41;101002.13;;;9.61;55.74
40490;BME280;26196;52.302;10.572;2023-03-04T09:21:41;100998.72;;;9.59;55.61
40490;BME280;26196;52.302;10.572;2023-03-04T09:25:42;101002.19;;;9.60;55.72
40490;BME280;26196;52.302;10.572;2023-03-04T09:29:43;101017.81;;;9.61;55.91
40490;BME280;26196;52.302;10.572;2023-03-04T09:33:44;101013.44;;;9.63;56.41
40490;BME280;26196;52.302;10.572;2023-03-04T09:37:45;101009.16;;;9.59;56.48
40490;BME280;26196;52.302;10.572;2023-03-04T09:41:48;101014.34;;;9.62;56.22
40490;BME280;26196;52.302;10.572;2023-03-04T09:45:52;101016.91;;;9.66;56.39
40490;BME280;26196;52.302;10.572;2023-03-04T09:49:59;100997.88;;;9.57;56.33
40490;BME280;26196;52.302;10.572;2023-03-04T10:02:46;101002.94;;;9.67;56.99
40490;BME280;26196;52.302;10.572;2023-03-04T10:07:13;100997.81;;;9.60;57.05
40490;BME280;26196;52.302;10.572;2023-03-04T10:11:24;101001.16;;;9.69;57.23
40490;BME280;26196;52.302;10.572;2023-03-04T10:15:33;100990.72;;;9.69;57.35
40490;BME280;26196;52.302;10.572;2023-03-04T10:19:55;101000.25;;;9.70;57.59
40490;BME280;26196;52.302;10.572;2023-03-04T10:24:00;101005.59;;;9.63;57.77
40490;BME280;26196;52.302;10.572;2023-03-04T10:28:20;101011.56;;;9.73;57.36
40490;BME280;26196;52.302;10.572;2023-03-04T10:32:22;101000.25;;;9.73;57.00
40490;BME280;26196;52.302;10.572;2023-03-04T10:36:48;101008.91;;;9.75;57.95
40490;BME280;26196;52.302;10.572;2023-03-04T10:40:50;101016.78;;;9.72;57.71
40490;BME280;26196;52.302;10.572;2023-03-04T10:44:56;101011.56;;;9.73;57.36
40490;BME280;26196;52.302;10.572;2023-03-04T10:49:02;101019.34;;;9.76;57.35
40490;BME280;26196;52.302;10.572;2023-03-04T10:53:03;101010.66;;;9.76;57.26
40490;BME280;26196;52.302;10.572;2023-03-04T10:57:05;101015.72;;;9.85;57.27
40490;BME280;26196;52.302;10.572;2023-03-04T11:01:26;101017.50;;;9.83;57.42
40490;BME280;26196;52.302;10.572;2023-03-04T11:14:25;101002.84;;;9.73;57.49
40490;BME280;26196;52.302;10.572;2023-03-04T11:18:49;100985.47;;;9.69;57.41
40490;BME280;26196;52.302;10.572;2023-03-04T11:22:53;100977.59;;;9.72;57.20
40490;BME280;26196;52.302;10.572;2023-03-04T11:27:17;100981.94;;;9.73;57.41
40490;BME280;26196;52.302;10.572;2023-03-04T11:31:35;100981.09;;;9.71;57.48
40490;BME280;26196;52.302;10.572;2023-03-04T11:35:43;100989.78;;;9.73;57.88
40490;BME280;26196;52.302;10.572;2023-03-04T11:39:55;100990.66;;;9.72;57.94
40490;BME280;26196;52.302;10.572;2023-03-04T11:43:58;100987.25;;;9.68;57.68
40490;BME280;26196;52.302;10.572;2023-03-04T11:48:17;100977.81;;;9.59;58.27
40490;BME280;26196;52.302;10.572;2023-03-04T11:56:48;100971.50;;;9.71;58.25
40490;BME280;26196;52.302;10.572;2023-03-04T12:00:56;100969.69;;;9.75;58.51
40490;BME280;26196;52.302;10.572;2023-03-04T12:05:22;100967.91;;;9.78;58.72
40490;BME280;26196;52.302;10.572;2023-03-04T12:22:15;100958.66;;;10.08;58.46
40490;BME280;26196;52.302;10.572;2023-03-04T12:35:32;100959.88;;;9.89;57.53
40490;BME280;26196;52.302;10.572;2023-03-04T12:39:39;100953.78;;;9.89;57.41
40490;BME280;26196;52.302;10.572;2023-03-04T12:57:17;100950.19;;;9.94;57.48
40490;BME280;26196;52.302;10.572;2023-03-04T13:06:25;100932.69;;;9.99;57.31
40490;BME280;26196;52.302;10.572;2023-03-04T13:10:29;100934.41;;;10.00;57.04
40490;BME280;26196;52.302;10.572;2023-03-04T13:14:33;100920.34;;;10.06;56.59
40490;BME280;26196;52.302;10.572;2023-03-04T13:18:35;100917.84;;;10.00;57.10
40490;BME280;26196;52.302;10.572;2023-03-04T13:22:52;100927.84;;;10.24;56.17
40490;BME280;26196;52.302;10.572;2023-03-04T13:32:33;100933.34;;;10.11;55.96
40490;BME280;26196;52.302;10.572;2023-03-04T13:36:55;100929.06;;;10.06;56.40
40490;BME280;26196;52.302;10.572;2023-03-04T13:45:33;100934.31;;;10.06;56.17
40490;BME280;26196;52.302;10.572;2023-03-04T13:49:35;100919.47;;;10.07;55.93
40490;BME280;26196;52.302;10.572;2023-03-04T14:02:23;100930.50;;;10.23;55.83
40490;BME280;26196;52.302;10.572;2023-03-04T14:06:40;100939.16;;;10.28;55.34
40490;BME280;26196;52.302;10.572;2023-03-04T14:10:40;100930.34;;;10.32;55.50
40490;BME280;26196;52.302;10.572;2023-03-04T14:14:57;100923.38;;;10.33;55.84
40490;BME280;26196;52.302;10.572;2023-03-04T14:19:04;100921.63;;;10.33;55.90
40490;BME280;26196;52.302;10.572;2023-03-04T14:23:24;100928.63;;;10.33;55.84
40490;BME280;26196;52.302;10.572;2023-03-04T14:27:34;100932.84;;;10.38;56.63
40490;BME280;26196;52.302;10.572;2023-03-04T14:31:41;100912.09;;;10.29;56.55
40490;BME280;26196;52.302;10.572;2023-03-04T14:35:47;100913.84;;;10.27;56.72
40490;BME280;26196;52.302;10.572;2023-03-04T14:39:56;100931.38;;;10.22;56.37
40490;BME280;26196;52.302;10.572;2023-03-04T14:44:08;100927.88;;;10.23;55.95
40490;BME280;26196;52.302;10.572;2023-03-04T14:48:33;100919.97;;;10.26;55.51
40490;BME280;26196;52.302;10.572;2023-03-04T14:56:42;100911.28;;;10.24;55.01
40490;BME280;26196;52.302;10.572;2023-03-04T15:00:44;100913.00;;;10.28;54.45
40490;BME280;26196;52.302;10.572;2023-03-04T15:04:52;100904.34;;;10.23;54.23
40490;BME280;26196;52.302;10.572;2023-03-04T15:09:18;100915.75;;;10.19;54.23
40490;BME280;26196;52.302;10.572;2023-03-04T15:22:35;100898.19;;;10.25;54.43
40490;BME280;26196;52.302;10.572;2023-03-04T15:26:38;100898.31;;;10.19;53.55
40490;BME280;26196;52.302;10.572;2023-03-04T15:30:39;100889.56;;;10.20;53.88
40490;BME280;26196;52.302;10.572;2023-03-04T15:34:43;100892.25;;;10.16;53.29
40490;BME280;26196;52.302;10.572;2023-03-04T15:38:49;100891.53;;;10.09;53.29
40490;BME280;26196;52.302;10.572;2023-03-04T15:42:51;100887.25;;;10.05;52.54
40490;BME280;26196;52.302;10.572;2023-03-04T15:46:51;100869.88;;;10.01;52.52
40490;BME280;26196;52.302;10.572;2023-03-04T15:50:57;100896.00;;;10.04;52.64
40490;BME280;26196;52.302;10.572;2023-03-04T15:54:58;100898.63;;;10.02;52.93
40490;BME280;26196;52.302;10.572;2023-03-04T15:59:11;100896.91;;;10.01;52.22
40490;BME280;26196;52.302;10.572;2023-03-04T16:03:18;100892.75;;;9.90;51.84
40490;BME280;26196;52.302;10.572;2023-03-04T16:07:28;100918.03;;;9.89;51.87
40490;BME280;26196;52.302;10.572;2023-03-04T16:11:31;100904.19;;;9.84;52.25
40490;BME280;26196;52.302;10.572;2023-03-04T16:15:36;100905.91;;;9.85;51.79
40490;BME280;26196;52.302;10.572;2023-03-04T16:19:36;100898.91;;;9.87;52.26
40490;BME280;26196;52.302;10.572;2023-03-04T16:23:42;100905.69;;;9.97;52.37
40490;BME280;26196;52.302;10.572;2023-03-04T16:27:46;100898.63;;;10.02;52.08
40490;BME280;26196;52.302;10.572;2023-03-04T16:31:47;100891.72;;;9.98;52.18
40490;BME280;26196;52.302;10.572;2023-03-04T16:35:54;100888.22;;;9.99;51.75
40490;BME280;26196;52.302;10.572;2023-03-04T16:39:55;100889.28;;;9.89;51.09
40490;BME280;26196;52.302;10.572;2023-03-04T16:43:59;100898.84;;;9.90;50.98
40490;BME280;26196;52.302;10.572;2023-03-04T16:48:00;100906.72;;;9.89;51.09
40490;BME280;26196;52.302;10.572;2023-03-04T16:52:03;100900.72;;;9.82;51.01
40490;BME280;26196;52.302;10.572;2023-03-04T16:56:15;100909.56;;;9.75;51.37
40490;BME280;26196;52.302;10.572;2023-03-04T17:00:19;100902.56;;;9.77;51.38
40490;BME280;26196;52.302;10.572;2023-03-04T17:04:20;100895.69;;;9.73;51.59
40490;BME280;26196;52.302;10.572;2023-03-04T17:08:22;100899.88;;;9.80;51.44
40490;BME280;26196;52.302;10.572;2023-03-04T17:12:22;100903.28;;;9.86;51.61
40490;BME280;26196;52.302;10.572;2023-03-04T17:16:41;100904.97;;;9.88;51.33
40490;BME280;26196;52.302;10.572;2023-03-04T17:20:41;100902.47;;;9.83;51.43
40490;BME280;26196;52.302;10.572;2023-03-04T17:24:42;100895.44;;;9.85;51.53
40490;BME280;26196;52.302;10.572;2023-03-04T17:28:42;100910.34;;;9.80;51.13
40490;BME280;26196;52.302;10.572;2023-03-04T17:33:02;100910.00;;;10.00;51.57
40490;BME280;26196;52.302;10.572;2023-03-04T17:37:15;100907.47;;;9.95;52.08
40490;BME280;26196;52.302;10.572;2023-03-04T17:41:16;100921.25;;;10.05;52.34
40490;BME280;26196;52.302;10.572;2023-03-04T17:45:17;100909.84;;;10.09;52.27
40490;BME280;26196;52.302;10.572;2023-03-04T17:49:20;100915.88;;;10.13;52.41
40490;BME280;26196;52.302;10.572;2023-03-04T17:53:28;100921.03;;;10.16;51.97
40490;BME280;26196;52.302;10.572;2023-03-04T17:57:29;100915.06;;;10.09;53.12
40490;BME280;26196;52.302;10.572;2023-03-04T18:01:29;100918.63;;;10.05;52.43
40490;BME280;26196;52.302;10.572;2023-03-04T18:05:32;100922.22;;;9.98;53.18
40490;BME280;26196;52.302;10.572;2023-03-04T18:09:32;100911.13;;;9.85;52.54
40490;BME280;26196;52.302;10.572;2023-03-04T18:13:36;100909.28;;;9.90;52.38
40490;BME280;26196;52.302;10.572;2023-03-04T18:17:36;100904.13;;;9.87;52.51
40490;BME280;26196;52.302;10.572;2023-03-04T18:21:39;100908.38;;;9.93;52.33
40490;BME280;26196;52.302;10.572;2023-03-04T18:25:39;100918.25;;;9.77;53.16
40490;BME280;26196;52.302;10.572;2023-03-04T18:29:40;100912.22;;;9.72;51.75
40490;BME280;26196;52.302;10.572;2023-03-04T18:33:44;100908.09;;;9.58;51.61
40490;BME280;26196;52.302;10.572;2023-03-04T18:37:47;100905.50;;;9.58;52.56
40490;BME280;26196;52.302;10.572;2023-03-04T18:41:48;100915.94;;;9.60;51.92
40490;BME280;26196;52.302;10.572;2023-03-04T18:45:48;100896.84;;;9.55;52.92
40490;BME280;26196;52.302;10.572;2023-03-04T18:49:57;100894.31;;;9.52;52.28
40490;BME280;26196;52.302;10.572;2023-03-04T18:53:58;100908.03;;;9.64;52.79
40490;BME280;26196;52.302;10.572;2023-03-04T18:58:05;100909.88;;;9.58;51.10
40490;BME280;26196;52.302;10.572;2023-03-04T19:02:21;100902.25;;;9.44;51.52
40490;BME280;26196;52.302;10.572;2023-03-04T19:06:38;100910.03;;;9.47;51.48
40490;BME280;26196;52.302;10.572;2023-03-04T19:10:39;100913.63;;;9.41;50.93
40490;BME280;26196;52.302;10.572;2023-03-04T19:14:39;100910.22;;;9.35;51.54
40490;BME280;26196;52.302;10.572;2023-03-04T19:18:45;100917.09;;;9.42;51.80
40490;BME280;26196;52.302;10.572;2023-03-04T19:22:53;100916.13;;;9.46;51.37
40490;BME280;26196;52.302;10.572;2023-03-04T19:26:55;100924.13;;;9.37;51.13
40490;BME280;26196;52.302;10.572;2023-03-04T19:30:56;100921.53;;;9.37;50.73
40490;BME280;26196;52.302;10.572;2023-03-04T19:34:58;100904.31;;;9.24;50.85
40490;BME280;26196;52.302;10.572;2023-03-04T19:38:58;100913.81;;;9.29;50.23
40490;BME280;26196;52.302;10.572;2023-03-04T19:42:59;100908.72;;;9.20;50.43
40490;BME280;26196;52.302;10.572;2023-03-04T19:47:00;100920.22;;;9.10;51.35
40490;BME280;26196;52.302;10.572;2023-03-04T19:51:01;100925.28;;;9.19;50.60
40490;BME280;26196;52.302;10.572;2023-03-04T19:55:04;100923.41;;;9.29;51.97
40490;BME280;26196;52.302;10.572;2023-03-04T19:59:10;100910.34;;;9.29;50.74
40490;BME280;26196;52.302;10.572;2023-03-04T20:03:13;100910.28;;;9.32;51.56
40490;BME280;26196;52.302;10.572;2023-03-04T20:07:18;100927.41;;;9.50;51.86
40490;BME280;26196;52.302;10.572;2023-03-04T20:11:18;100918.69;;;9.52;52.83
40490;BME280;26196;52.302;10.572;2023-03-04T20:15:19;100925.56;;;9.56;51.83
40490;BME280;26196;52.302;10.572;2023-03-04T20:19:19;100930.75;;;9.59;53.79
40490;BME280;26196;52.302;10.572;2023-03-04T20:23:21;100916.00;;;9.57;53.16
40490;BME280;26196;52.302;10.572;2023-03-04T20:27:22;100925.47;;;9.62;52.73
40490;BME280;26196;52.302;10.572;2023-03-04T20:31:27;100938.31;;;9.75;52.53
40490;BME280;26196;52.302;10.572;2023-03-04T20:35:28;100941.72;;;9.81;53.16
40490;BME280;26196;52.302;10.572;2023-03-04T20:39:29;100932.09;;;9.82;53.00
40490;BME280;26196;52.302;10.572;2023-03-04T20:43:35;100938.19;;;9.82;52.55
40490;BME280;26196;52.302;10.572;2023-03-04T20:47:35;100944.31;;;9.83;52.44
40490;BME280;26196;52.302;10.572;2023-03-04T20:51:38;100946.78;;;9.91;53.04
40490;BME280;26196;52.302;10.572;2023-03-04T20:55:39;100947.72;;;9.88;52.29
40490;BME280;26196;52.302;10.572;2023-03-04T20:59:40;100951.13;;;9.90;52.63
40490;BME280;26196;52.302;10.572;2023-03-04T21:03:41;100942.47;;;9.88;52.27
40490;BME280;26196;52.302;10.572;2023-03-04T21:07:49;100947.72;;;9.88;51.41
40490;BME280;26196;52.302;10.572;2023-03-04T21:11:55;100952.88;;;9.90;52.45
40490;BME280;26196;52.302;10.572;2023-03-04T21:15:57;100945.03;;;9.91;51.39
40490;BME280;26196;52.302;10.572;2023-03-04T21:19:58;100940.84;;;9.81;50.12
40490;BME280;26196;52.302;10.572;2023-03-04T21:23:59;100935.69;;;9.75;51.16
40490;BME280;26196;52.302;10.572;2023-03-04T21:27:59;100933.06;;;9.78;50.28
40490;BME280;26196;52.302;10.572;2023-03-04T21:32:11;100926.16;;;9.72;50.69
40490;BME280;26196;52.302;10.572;2023-03-04T21:36:22;100920.13;;;9.69;50.17
40490;BME280;26196;52.302;10.572;2023-03-04T21:40:32;100921.84;;;9.70;50.77
40490;BME280;26196;52.302;10.572;2023-03-04T21:44:34;100924.44;;;9.73;50.00
40490;BME280;26196;52.302;10.572;2023-03-04T21:48:42;100933.19;;;9.70;50.77
40490;BME280;26196;52.302;10.572;2023-03-04T21:52:44;100928.03;;;9.66;49.81
40490;BME280;26196;52.302;10.572;2023-03-04T21:56:45;100923.91;;;9.51;48.83
40490;BME280;26196;52.302;10.572;2023-03-04T22:00:46;100910.78;;;9.54;49.98
40490;BME280;26196;52.302;10.572;2023-03-04T22:04:48;100910.66;;;9.61;49.55
40490;BME280;26196;52.302;10.572;2023-03-04T22:09:20;100909.75;;;9.66;50.07
40490;BME280;26196;52.302;10.572;2023-03-04T22:13:20;100896.59;;;9.70;50.04
40490;BME280;26196;52.302;10.572;2023-03-04T22:17:20;100896.59;;;9.69;49.26
40490;BME280;26196;52.302;10.572;2023-03-04T22:21:21;100897.56;;;9.64;48.74
40490;BME280;26196;52.302;10.572;2023-03-04T22:25:29;100895.09;;;9.57;49.96
40490;BME280;26196;52.302;10.572;2023-03-04T22:29:30;100891.63;;;9.53;50.87
40490;BME280;26196;52.302;10.572;2023-03-04T22:33:37;100880.34;;;9.53;50.15
40490;BME280;26196;52.302;10.572;2023-03-04T22:37:39;100894.16;;;9.59;50.08
40490;BME280;26196;52.302;10.572;2023-03-04T22:41:40;100891.44;;;9.64;50.52
40490;BME280;26196;52.302;10.572;2023-03-04T22:45:43;100889.81;;;9.60;50.05
40490;BME280;26196;52.302;10.572;2023-03-04T22:49:43;100883.78;;;9.55;50.18
40490;BME280;26196;52.302;10.572;2023-03-04T22:54:04;100885.50;;;9.57;50.48
40490;BME280;26196;52.302;10.572;2023-03-04T22:58:04;100870.78;;;9.50;49.48